Time;durP1;ratioP1;P1;durP2;ratioP2;P2;SDS_P1;SDS_P2;PMS_P1;PMS_P2;Temp;Humidity;BMP_temperature;BMP_pressure;BME280_temperature;BME280_humidity;BME280_pressure;Samples;Min_cycle;Max_cycle;Signal;HPM_P1;HPM_P2
2024/01/17 00:00:18;;;;;;;4.38;1.80;;;;;;;-10.47;100.00;97492.03;5097296;28;20382;-52
2024/01/17 00:02:45;;;;;;;1.27;1.17;;;;;;;-10.75;100.00;97506.69;5097629;28;20047;-52
2024/01/17 00:05:11;;;;;;;2.70;1.35;;;;;;;-10.46;100.00;97498.16;5097125;28;20100;-49
2024/01/17 00:07:37;;;;;;;2.40;1.73;;;;;;;-10.47;100.00;97510.59;5097467;28;20147;-52
2024/01/17 00:10:04;;;;;;;2.67;1.98;;;;;;;-10.43;100.00;97508.19;5097084;28;20484;-50
2024/01/17 00:12:30;;;;;;;3.33;2.10;;;;;;;-10.55;100.00;97500.56;5097436;28;20113;-48
2024/01/17 00:14:56;;;;;;;1.42;1.33;;;;;;;-10.43;100.00;97513.50;5096926;28;20052;-50
2024/01/17 00:17:23;;;;;;;2.38;1.40;;;;;;;-10.51;100.00;97516.69;5097172;28;20090;-50
2024/01/17 00:19:50;;;;;;;2.53;1.58;;;;;;;-10.55;100.00;97518.31;5097165;28;20044;-48
2024/01/17 00:22:16;;;;;;;1.55;1.40;;;;;;;-10.78;100.00;97517.03;5096831;28;20488;-54
2024/01/17 00:24:43;;;;;;;10.05;1.50;;;;;;;-10.63;100.00;97509.03;5097049;28;20063;-51
2024/01/17 00:27:09;;;;;;;2.05;1.27;;;;;;;-10.89;100.00;97513.59;5096652;28;20077;-53
2024/01/17 00:29:36;;;;;;;1.83;1.13;;;;;;;-11.01;100.00;97513.84;5097133;28;20048;-51
2024/01/17 00:32:02;;;;;;;7.15;1.98;;;;;;;-10.81;100.00;97512.25;5096769;28;20044;-53
2024/01/17 00:34:29;;;;;;;2.17;1.58;;;;;;;-10.72;100.00;97510.66;5097088;28;20051;-49
2024/01/17 00:36:55;;;;;;;3.83;1.80;;;;;;;-10.71;100.00;97515.69;5096631;28;20108;-51
2024/01/17 00:39:22;;;;;;;2.28;1.88;;;;;;;-10.70;100.00;97513.81;5097084;28;20056;-53
2024/01/17 00:41:48;;;;;;;6.65;2.13;;;;;;;-10.90;100.00;97518.06;5096838;28;20063;-55
2024/01/17 00:44:17;;;;;;;2.08;1.88;;;;;;;-10.82;100.00;97522.06;5096780;28;20055;-48
2024/01/17 00:46:43;;;;;;;3.42;1.65;;;;;;;-10.68;100.00;97512.50;5096764;28;20052;-52
2024/01/17 00:49:09;;;;;;;2.03;1.55;;;;;;;-10.76;100.00;97522.81;5096625;28;20175;-50
2024/01/17 00:51:36;;;;;;;5.10;2.00;;;;;;;-10.75;100.00;97532.38;5096616;28;20048;-51
2024/01/17 00:54:03;;;;;;;3.03;1.88;;;;;;;-10.79;100.00;97539.25;5096509;28;20337;-49
2024/01/17 00:56:32;;;;;;;5.97;2.22;;;;;;;-11.03;100.00;97557.50;5096397;28;20052;-53
2024/01/17 00:58:58;;;;;;;5.18;2.15;;;;;;;-10.95;100.00;97557.00;5096354;28;20052;-48
2024/01/17 01:01:25;;;;;;;2.80;1.98;;;;;;;-11.26;100.00;97564.09;5096637;28;20048;-54
2024/01/17 01:03:52;;;;;;;2.20;1.85;;;;;;;-11.16;100.00;97556.19;5096360;28;20113;-49
2024/01/17 01:06:18;;;;;;;2.95;1.92;;;;;;;-11.19;100.00;97560.16;5096686;28;20055;-51
2024/01/17 01:08:45;;;;;;;5.38;1.98;;;;;;;-11.33;100.00;97556.44;5096202;28;20340;-52
2024/01/17 01:11:11;;;;;;;2.00;1.77;;;;;;;-11.35;100.00;97552.47;5096460;28;20058;-49
2024/01/17 01:13:37;;;;;;;2.38;1.73;;;;;;;-11.33;100.00;97547.69;5096419;28;20063;-53
2024/01/17 01:16:04;;;;;;;2.15;1.95;;;;;;;-11.35;100.00;97539.25;5096353;28;20047;-50
2024/01/17 01:18:30;;;;;;;4.78;2.45;;;;;;;-11.62;100.00;97525.19;5096305;28;20267;-49
2024/01/17 01:20:57;;;;;;;4.55;2.13;;;;;;;-11.23;100.00;97508.84;5096156;28;20135;-48
2024/01/17 01:23:25;;;;;;;2.08;1.48;;;;;;;-11.20;100.00;97529.47;5096419;28;20059;-50
2024/01/17 01:25:52;;;;;;;6.15;2.38;;;;;;;-11.06;100.00;97510.41;5096014;28;20051;-47
2024/01/17 01:28:18;;;;;;;2.92;1.77;;;;;;;-11.06;100.00;97521.81;5096331;28;20473;-49
2024/01/17 01:30:44;;;;;;;2.88;1.85;;;;;;;-11.09;100.00;97524.16;5095918;28;20420;-52
2024/01/17 01:33:10;;;;;;;3.15;2.08;;;;;;;-11.17;100.00;97533.44;5096436;28;20098;-49
2024/01/17 01:35:37;;;;;;;2.13;1.92;;;;;;;-11.40;100.00;97527.59;5095873;28;20135;-53
2024/01/17 01:38:03;;;;;;;1.55;1.45;;;;;;;-11.22;100.00;97528.16;5096242;28;20150;-51
2024/01/17 01:40:29;;;;;;;4.68;2.38;;;;;;;-11.10;100.00;97525.22;5096109;28;20138;-52
2024/01/17 01:42:59;;;;;;;3.67;2.22;;;;;;;-11.11;100.00;97535.03;5095977;28;20237;-50
2024/01/17 01:45:26;;;;;;;1.85;1.75;;;;;;;-11.09;100.00;97540.84;5095854;28;20062;-51
2024/01/17 01:47:52;;;;;;;5.20;2.00;;;;;;;-11.08;100.00;97550.38;5095818;28;20062;-54
2024/01/17 01:50:18;;;;;;;3.05;2.42;;;;;;;-11.35;100.00;97541.91;5095959;28;20143;-51
2024/01/17 01:52:48;;;;;;;1.83;1.73;;;;;;;-11.18;100.00;97553.81;5095895;28;20436;-49
2024/01/17 01:55:14;;;;;;;9.65;2.70;;;;;;;-11.22;100.00;97560.69;5096059;28;20058;-53
2024/01/17 01:57:46;;;;;;;4.50;1.80;;;;;;;-11.30;100.00;97568.34;5095679;28;20118;-51
2024/01/17 02:00:15;;;;;;;2.88;1.83;;;;;;;-11.58;100.00;97578.34;5096171;28;20056;-51
2024/01/17 02:02:41;;;;;;;1.77;1.67;;;;;;;-11.63;100.00;97589.72;5095484;28;20056;-50
2024/01/17 02:05:08;;;;;;;8.38;2.17;;;;;;;-11.46;100.00;97602.72;5095492;28;20408;-53
2024/01/17 02:07:35;;;;;;;4.07;2.67;;;;;;;-11.64;100.00;97609.25;5097433;28;20052;-53
2024/01/17 02:10:01;;;;;;;4.53;2.38;;;;;;;-11.60;100.00;97598.94;5099127;28;20048;-53
2024/01/17 02:12:28;;;;;;;2.83;1.83;;;;;;;-11.87;100.00;97594.66;5099228;28;20425;-48
2024/01/17 02:14:54;;;;;;;3.85;1.83;;;;;;;-11.35;100.00;97592.16;5098950;28;20104;-53
2024/01/17 02:17:21;;;;;;;5.85;2.03;;;;;;;-11.24;100.00;97583.97;5099004;28;20056;-48
2024/01/17 02:19:48;;;;;;;4.13;2.55;;;;;;;-11.18;100.00;97595.34;5098752;28;20055;-49
2024/01/17 02:22:14;;;;;;;2.47;1.83;;;;;;;-11.51;100.00;97613.25;5099168;28;20063;-53
2024/01/17 02:24:40;;;;;;;2.75;2.25;;;;;;;-11.22;100.00;97607.53;5098747;28;20056;-48
2024/01/17 02:27:07;;;;;;;2.50;1.67;;;;;;;-11.09;100.00;97606.19;5098995;28;20139;-51
2024/01/17 02:29:33;;;;;;;2.03;1.83;;;;;;;-11.16;100.00;97604.63;5098587;28;20142;-53
2024/01/17 02:31:59;;;;;;;8.38;2.30;;;;;;;-11.37;100.00;97614.34;5098429;28;20135;-49
2024/01/17 02:34:25;;;;;;;3.00;2.13;;;;;;;-11.31;100.00;97622.31;5098527;28;20058;-49
2024/01/17 02:36:52;;;;;;;1.75;1.65;;;;;;;-11.36;100.00;97633.69;5098759;28;20382;-51
2024/01/17 02:39:18;;;;;;;1.85;1.50;;;;;;;-11.59;100.00;97644.69;5098749;28;20077;-53
2024/01/17 02:41:44;;;;;;;2.22;1.88;;;;;;;-12.05;100.00;97653.25;5098648;28;20063;-49
2024/01/17 02:44:11;;;;;;;2.72;1.40;;;;;;;-11.56;100.00;97625.66;5098748;28;20062;-51
2024/01/17 02:46:37;;;;;;;3.70;2.20;;;;;;;-11.63;100.00;97621.44;5098466;28;20142;-53
2024/01/17 02:49:03;;;;;;;2.65;1.92;;;;;;;-11.49;100.00;97621.75;5098607;28;20151;-48
2024/01/17 02:51:29;;;;;;;2.95;1.75;;;;;;;-11.46;100.00;97634.44;5098680;28;20048;-53
2024/01/17 02:53:55;;;;;;;2.08;1.63;;;;;;;-11.36;100.00;97636.34;5098730;28;20048;-49
2024/01/17 02:56:21;;;;;;;1.83;1.67;;;;;;;-11.36;100.00;97631.03;5098262;28;20138;-53
2024/01/17 02:58:49;;;;;;;3.30;2.20;;;;;;;-11.41;100.00;97638.94;5098702;28;20059;-50
2024/01/17 03:01:15;;;;;;;1.80;1.70;;;;;;;-11.37;100.00;97637.38;5098124;28;20052;-51
2024/01/17 03:03:41;;;;;;;4.13;2.20;;;;;;;-11.45;100.00;97640.53;5098287;28;20062;-53
2024/01/17 03:06:07;;;;;;;2.00;1.90;;;;;;;-11.63;100.00;97647.06;5098247;28;20052;-49
2024/01/17 03:08:33;;;;;;;2.75;2.22;;;;;;;-11.57;100.00;97653.97;5098211;28;20324;-53
2024/01/17 03:10:59;;;;;;;5.35;2.47;;;;;;;-11.55;100.00;97656.34;5098310;28;20052;-49
2024/01/17 03:13:26;;;;;;;2.53;2.42;;;;;;;-11.47;100.00;97664.56;5098040;28;20142;-51
2024/01/17 03:15:52;;;;;;;2.22;1.60;;;;;;;-11.56;100.00;97674.06;5098259;28;20048;-49
2024/01/17 03:18:19;;;;;;;7.38;1.88;;;;;;;-11.66;100.00;97671.38;5097786;28;20044;-50
2024/01/17 03:20:45;;;;;;;5.68;2.47;;;;;;;-11.90;100.00;97671.00;5098184;28;20043;-54
2024/01/17 03:23:11;;;;;;;3.00;2.38;;;;;;;-11.72;100.00;97672.41;5097818;28;20139;-50
2024/01/17 03:25:37;;;;;;;12.73;3.80;;;;;;;-11.67;100.00;97681.16;5098162;28;20055;-51
2024/01/17 03:28:03;;;;;;;5.57;3.30;;;;;;;-11.90;100.00;97685.03;5097641;28;20062;-54
2024/01/17 03:30:32;;;;;;;3.47;1.98;;;;;;;-11.67;100.00;97688.28;5097556;28;20446;-55
2024/01/17 03:32:59;;;;;;;2.45;1.73;;;;;;;-11.79;100.00;97695.63;5097881;28;20052;-50
2024/01/17 03:35:25;;;;;;;3.20;1.77;;;;;;;-11.97;100.00;97700.31;5097550;28;20476;-53
2024/01/17 03:37:51;;;;;;;2.38;2.17;;;;;;;-11.92;100.00;97694.28;5097834;28;20135;-51
2024/01/17 03:40:18;;;;;;;1.88;1.77;;;;;;;-12.21;100.00;97701.75;5097674;28;20155;-51
2024/01/17 03:42:44;;;;;;;2.58;2.22;;;;;;;-12.15;100.00;97695.44;5097651;28;20054;-53
2024/01/17 03:45:10;;;;;;;2.05;1.85;;;;;;;-12.06;100.00;97696.56;5097303;28;20078;-49
2024/01/17 03:47:36;;;;;;;6.72;2.72;;;;;;;-12.32;100.00;97695.59;5097735;28;20078;-53
2024/01/17 03:50:03;;;;;;;4.57;2.78;;;;;;;-11.91;100.00;97704.59;5097320;28;20130;-49
2024/01/17 03:52:29;;;;;;;3.92;2.60;;;;;;;-11.75;100.00;97708.09;5097765;28;20481;-52
2024/01/17 03:54:56;;;;;;;5.38;2.10;;;;;;;-12.17;100.00;97694.91;5097257;28;20054;-52
2024/01/17 03:57:22;;;;;;;3.22;1.85;;;;;;;-11.69;100.00;97700.97;5097690;28;20139;-53
2024/01/17 03:59:48;;;;;;;2.05;1.95;;;;;;;-11.77;100.00;97712.81;5097141;28;20142;-50
2024/01/17 04:02:14;;;;;;;3.00;1.90;;;;;;;-11.53;100.00;97712.41;5097209;28;20052;-53
2024/01/17 04:04:41;;;;;;;6.90;2.78;;;;;;;-11.70;100.00;97717.88;5097381;28;20448;-50
2024/01/17 04:07:08;;;;;;;2.67;2.20;;;;;;;-11.57;100.00;97714.78;5097235;28;20087;-53
2024/01/17 04:09:35;;;;;;;1.90;1.75;;;;;;;-11.28;100.00;97712.53;5097313;28;20052;-51
2024/01/17 04:12:01;;;;;;;3.75;2.28;;;;;;;-11.16;100.00;97718.41;5097154;28;20056;-52
2024/01/17 04:14:27;;;;;;;9.93;2.65;;;;;;;-11.25;100.00;97735.81;5097244;28;20135;-51
2024/01/17 04:16:53;;;;;;;5.53;2.08;;;;;;;-11.39;100.00;97740.78;5096854;28;20112;-50
2024/01/17 04:19:19;;;;;;;7.43;3.20;;;;;;;-11.28;100.00;97746.91;5097092;28;20139;-54
2024/01/17 04:21:45;;;;;;;2.83;2.22;;;;;;;-11.58;100.00;97762.63;5096745;28;20060;-48
2024/01/17 04:24:12;;;;;;;6.63;2.80;;;;;;;-11.48;100.00;97765.34;5097152;28;20095;-52
2024/01/17 04:26:38;;;;;;;4.25;2.45;;;;;;;-11.53;100.00;97779.31;5096691;28;20055;-53
2024/01/17 04:29:04;;;;;;;6.45;3.00;;;;;;;-11.65;100.00;97784.81;5096099;28;20054;-49
2024/01/17 04:31:32;;;;;;;4.13;2.30;;;;;;;-11.80;100.00;97797.13;5096544;28;20070;-53
2024/01/17 04:33:58;;;;;;;5.78;3.13;;;;;;;-11.98;100.00;97791.22;5096470;28;20369;-47
2024/01/17 04:36:27;;;;;;;7.78;3.17;;;;;;;-11.82;100.00;97788.66;5096713;28;20366;-50
2024/01/17 04:38:54;;;;;;;5.47;3.08;;;;;;;-11.81;100.00;97790.25;5096617;28;20048;-47
2024/01/17 04:41:21;;;;;;;3.92;2.78;;;;;;;-11.97;100.00;97792.78;5096469;28;20147;-50
2024/01/17 04:43:47;;;;;;;3.80;2.53;;;;;;;-12.01;100.00;97797.00;5096102;28;20143;-48
2024/01/17 04:46:15;;;;;;;6.63;2.95;;;;;;;-12.03;100.00;97801.72;5096418;28;20052;-47
2024/01/17 04:48:42;;;;;;;5.13;3.78;;;;;;;-12.05;100.00;97792.47;5096165;28;20183;-50
2024/01/17 04:51:10;;;;;;;4.43;2.47;;;;;;;-12.04;100.00;97794.06;5096407;28;20079;-50
2024/01/17 04:53:37;;;;;;;3.13;2.17;;;;;;;-11.99;100.00;97794.13;5096179;28;20044;-47
2024/01/17 04:56:05;;;;;;;3.28;2.97;;;;;;;-12.21;100.00;97802.13;5096627;28;20465;-49
2024/01/17 04:58:32;;;;;;;3.95;2.58;;;;;;;-12.16;100.00;97799.50;5096064;28;20439;-49
2024/01/17 05:00:59;;;;;;;4.53;2.50;;;;;;;-12.18;100.00;97797.13;5095960;28;20056;-52
2024/01/17 05:03:26;;;;;;;3.03;1.73;;;;;;;-12.16;100.00;97799.50;5096110;28;20323;-50
2024/01/17 05:05:52;;;;;;;12.43;1.77;;;;;;;-12.16;100.00;97804.78;5096040;28;20048;-51
2024/01/17 05:08:18;;;;;;;2.28;2.08;;;;;;;-12.22;100.00;97808.47;5096220;28;20098;-48
2024/01/17 05:10:45;;;;;;;3.95;2.88;;;;;;;-12.28;100.00;97809.47;5096105;28;20106;-50
2024/01/17 05:13:12;;;;;;;5.13;2.40;;;;;;;-12.37;100.00;97798.53;5096293;28;20053;-54
2024/01/17 05:15:39;;;;;;;5.13;2.63;;;;;;;-12.34;100.00;97801.47;5095811;28;20048;-48
2024/01/17 05:18:06;;;;;;;10.90;4.40;;;;;;;-12.30;100.00;97801.75;5096316;28;20390;-48
2024/01/17 05:20:33;;;;;;;20.85;6.05;;;;;;;-12.31;100.00;97808.09;5095683;28;20456;-50
2024/01/17 05:22:59;;;;;;;8.18;4.03;;;;;;;-12.40;100.00;97815.66;5096075;28;20080;-49
2024/01/17 05:25:26;;;;;;;13.30;5.50;;;;;;;-12.60;100.00;97810.97;5095563;28;20146;-52
2024/01/17 05:27:52;;;;;;;19.55;6.88;;;;;;;-12.40;100.00;97806.94;5095622;28;20052;-47
2024/01/17 05:30:20;;;;;;;7.22;3.95;;;;;;;-12.65;100.00;97807.50;5095646;28;20466;-48
2024/01/17 05:32:47;;;;;;;3.60;2.72;;;;;;;-12.57;100.00;97805.22;5095814;28;20048;-48
2024/01/17 05:35:14;;;;;;;16.02;4.30;;;;;;;-12.54;100.00;97818.97;5095945;28;20189;-52
2024/01/17 05:37:41;;;;;;;9.38;3.33;;;;;;;-12.61;100.00;97813.88;5095269;28;20068;-49
2024/01/17 05:40:09;;;;;;;5.97;4.40;;;;;;;-12.63;100.00;97822.03;5095570;28;20048;-51
2024/01/17 05:42:35;;;;;;;18.60;8.23;;;;;;;-12.61;100.00;97819.16;5096995;28;20044;-48
2024/01/17 05:45:02;;;;;;;32.95;14.07;;;;;;;-12.69;100.00;97832.78;5099191;28;20083;-49
2024/01/17 05:47:29;;;;;;;34.10;13.15;;;;;;;-12.70;100.00;97836.47;5098788;28;20074;-51
2024/01/17 05:49:57;;;;;;;28.98;13.20;;;;;;;-12.71;100.00;97833.03;5099181;28;20134;-49
2024/01/17 05:52:23;;;;;;;215.48;75.68;;;;;;;-12.58;100.00;97824.75;5099255;28;20052;-52
2024/01/17 05:54:49;;;;;;;105.60;38.88;;;;;;;-12.57;100.00;97830.81;5098800;28;20140;-52
2024/01/17 05:57:16;;;;;;;36.47;15.93;;;;;;;-12.60;100.00;97834.75;5099174;28;20083;-48
2024/01/17 05:59:43;;;;;;;24.80;9.30;;;;;;;-12.64;100.00;97835.50;5098952;28;20055;-48
2024/01/17 06:02:09;;;;;;;26.00;9.70;;;;;;;-12.73;100.00;97843.03;5098830;28;20063;-48
2024/01/17 06:04:35;;;;;;;17.23;7.72;;;;;;;-12.72;100.00;97846.50;5098871;28;20340;-49
2024/01/17 06:07:03;;;;;;;20.15;9.05;;;;;;;-12.83;100.00;97851.66;5098962;28;20048;-51
2024/01/17 06:09:30;;;;;;;26.75;9.85;;;;;;;-12.88;100.00;97862.13;5098624;28;20056;-50
2024/01/17 06:11:56;;;;;;;27.13;11.30;;;;;;;-12.87;100.00;97861.09;5098949;28;20405;-47
2024/01/17 06:14:23;;;;;;;45.03;17.42;;;;;;;-12.89;100.00;97868.47;5098658;28;20136;-52
2024/01/17 06:16:49;;;;;;;47.45;18.63;;;;;;;-12.98;100.00;97869.94;5098982;28;20052;-51
2024/01/17 06:19:16;;;;;;;25.73;13.90;;;;;;;-13.19;100.00;97876.78;5098220;28;20043;-48
2024/01/17 06:21:43;;;;;;;55.42;20.30;;;;;;;-13.13;100.00;97881.06;5098302;28;20058;-54
2024/01/17 06:24:10;;;;;;;77.32;20.55;;;;;;;-12.96;100.00;97882.88;5098410;28;20047;-51
2024/01/17 06:26:36;;;;;;;64.43;23.65;;;;;;;-12.97;100.00;97892.63;5098238;28;20052;-49
2024/01/17 06:29:03;;;;;;;85.43;29.75;;;;;;;-12.96;100.00;97896.06;5098359;28;20386;-50
2024/01/17 06:31:29;;;;;;;110.68;37.38;;;;;;;-12.93;100.00;97898.22;5097703;28;20084;-53
2024/01/17 06:33:56;;;;;;;97.07;34.47;;;;;;;-13.01;100.00;97906.56;5098269;28;20420;-49
2024/01/17 06:36:24;;;;;;;122.13;37.35;;;;;;;-13.00;100.00;97903.66;5097786;28;20085;-51
2024/01/17 06:38:50;;;;;;;97.18;32.45;;;;;;;-13.04;100.00;97911.25;5098235;28;20055;-54
2024/01/17 06:41:17;;;;;;;83.25;21.23;;;;;;;-12.96;100.00;97911.88;5097954;28;20131;-51
2024/01/17 06:43:45;;;;;;;94.28;29.17;;;;;;;-12.93;100.00;97916.69;5098311;28;20044;-52
2024/01/17 06:46:11;;;;;;;101.00;33.75;;;;;;;-12.87;100.00;97928.91;5097961;28;20063;-50
2024/01/17 06:48:37;;;;;;;84.15;27.83;;;;;;;-12.96;100.00;97940.91;5098438;28;20052;-52
2024/01/17 06:51:04;;;;;;;69.72;26.23;;;;;;;-12.99;100.00;97955.41;5098165;28;20048;-53
2024/01/17 06:53:31;;;;;;;67.18;24.13;;;;;;;-12.62;100.00;97958.28;5097358;28;20066;-53
2024/01/17 06:55:58;;;;;;;64.22;22.67;;;;;;;-12.77;100.00;97979.19;5097745;28;20478;-53
2024/01/17 06:58:25;;;;;;;55.95;20.65;;;;;;;-12.83;100.00;98004.72;5097851;28;20074;-47
2024/01/17 07:00:51;;;;;;;60.78;22.90;;;;;;;-12.85;100.00;98027.09;5097604;28;20060;-54
2024/01/17 07:03:18;;;;;;;46.88;17.45;;;;;;;-12.79;100.00;98023.50;5097878;28;20048;-53
2024/01/17 07:05:45;;;;;;;46.00;18.00;;;;;;;-12.59;100.00;98034.34;5097715;28;20133;-50
2024/01/17 07:08:11;;;;;;;61.97;22.55;;;;;;;-12.63;100.00;98045.63;5097546;28;20309;-53
2024/01/17 07:10:39;;;;;;;71.43;24.25;;;;;;;-12.69;100.00;98072.97;5097345;28;20051;-51
2024/01/17 07:13:05;;;;;;;60.95;25.77;;;;;;;-12.68;100.00;98088.59;5097236;28;20048;-48
2024/01/17 07:15:32;;;;;;;50.75;20.02;;;;;;;-12.61;100.00;98101.63;5097120;28;20077;-52
2024/01/17 07:17:58;;;;;;;38.72;19.48;;;;;;;-12.54;100.00;98106.75;5097213;28;20082;-51
2024/01/17 07:20:25;;;;;;;62.85;21.55;;;;;;;-12.34;100.00;98105.19;5097336;28;20055;-49
2024/01/17 07:22:51;;;;;;;75.18;24.55;;;;;;;-12.10;100.00;98113.72;5097218;28;20091;-51
2024/01/17 07:25:18;;;;;;;43.05;17.75;;;;;;;-11.77;100.00;98134.97;5097475;28;20071;-54
2024/01/17 07:27:45;;;;;;;26.05;12.23;;;;;;;-10.56;100.00;98134.66;5097233;28;20059;-52
2024/01/17 07:30:12;;;;;;;42.40;15.30;;;;;;;-9.78;100.00;98182.56;5097277;28;20048;-52
2024/01/17 07:32:40;;;;;;;60.47;18.10;;;;;;;-9.12;100.00;98245.00;5097375;28;20048;-54
2024/01/17 07:35:06;;;;;;;50.08;18.30;;;;;;;-8.65;100.00;98298.03;5097195;28;20048;-55
2024/01/17 07:37:33;;;;;;;71.45;22.23;;;;;;;-8.64;100.00;98354.63;5097574;28;20048;-50
2024/01/17 07:39:59;;;;;;;67.32;21.40;;;;;;;-8.00;100.00;98375.53;5097202;28;20473;-52
2024/01/17 07:42:26;;;;;;;58.15;22.35;;;;;;;-7.76;100.00;98396.31;5097607;28;20052;-54
2024/01/17 07:44:52;;;;;;;67.07;21.95;;;;;;;-7.79;100.00;98408.31;5097033;28;20052;-52
2024/01/17 07:47:18;;;;;;;95.22;30.27;;;;;;;-8.22;100.00;98415.63;5096902;28;20185;-49
2024/01/17 07:49:46;;;;;;;108.55;34.97;;;;;;;-7.84;100.00;98416.25;5097071;28;20313;-55
2024/01/17 07:52:12;;;;;;;97.00;33.58;;;;;;;-7.62;100.00;98424.81;5096749;28;20052;-54
2024/01/17 07:54:39;;;;;;;112.90;36.65;;;;;;;-7.10;100.00;98433.63;5096883;28;20056;-52
2024/01/17 07:57:05;;;;;;;111.05;35.92;;;;;;;-6.56;100.00;98430.34;5096843;28;20431;-49
2024/01/17 07:59:33;;;;;;;92.40;34.95;;;;;;;-6.65;100.00;98438.09;5097064;28;20397;-56
2024/01/17 08:01:59;;;;;;;106.18;34.50;;;;;;;-6.21;100.00;98442.75;5096648;28;20336;-50
2024/01/17 08:04:26;;;;;;;124.57;39.72;;;;;;;-6.02;100.00;98436.84;5095822;28;20055;-52
2024/01/17 08:06:53;;;;;;;134.10;41.65;;;;;;;-5.95;99.41;98448.00;5096580;28;20047;-54
2024/01/17 08:09:20;;;;;;;99.82;36.35;;;;;;;-5.89;97.30;98438.06;5097189;28;20534;-49
2024/01/17 08:11:47;;;;;;;96.88;36.08;;;;;;;-5.99;97.13;98438.97;5096534;28;20334;-54
2024/01/17 08:14:14;;;;;;;95.05;34.22;;;;;;;-6.14;94.13;98441.69;5096506;28;20112;-55
2024/01/17 08:16:40;;;;;;;100.60;33.67;;;;;;;-5.76;94.31;98451.63;5096593;28;20181;-54
2024/01/17 08:19:06;;;;;;;84.00;33.95;;;;;;;-5.72;93.14;98447.31;5096663;28;20048;-50
2024/01/17 08:21:33;;;;;;;93.72;33.95;;;;;;;-5.42;93.89;98456.22;5096504;28;20048;-54
2024/01/17 08:24:00;;;;;;;100.63;36.80;;;;;;;-5.11;89.46;98459.44;5096336;28;20051;-52
2024/01/17 08:26:26;;;;;;;95.55;34.75;;;;;;;-4.50;88.32;98464.28;5096537;28;20055;-55
2024/01/17 08:28:53;;;;;;;102.97;34.75;;;;;;;-4.37;87.14;98476.16;5096335;28;20328;-56
2024/01/17 08:31:19;;;;;;;90.80;37.47;;;;;;;-4.57;85.36;98473.69;5096602;28;20052;-50
2024/01/17 08:33:45;;;;;;;94.78;36.88;;;;;;;-4.10;85.68;98475.63;5095938;28;20044;-51
2024/01/17 08:36:14;;;;;;;96.60;35.80;;;;;;;-4.10;83.77;98472.94;5096618;28;20113;-54
2024/01/17 08:38:40;;;;;;;91.40;35.47;;;;;;;-4.15;84.45;98485.56;5096242;28;20112;-55
2024/01/17 08:41:07;;;;;;;94.38;38.60;;;;;;;-4.27;86.08;98477.94;5096726;28;20379;-51
2024/01/17 08:43:34;;;;;;;98.75;37.58;;;;;;;-4.75;88.29;98488.56;5096487;28;20079;-53
2024/01/17 08:46:00;;;;;;;100.35;39.80;;;;;;;-5.16;93.33;98480.88;5096147;28;20062;-51
2024/01/17 08:48:26;;;;;;;90.68;38.47;;;;;;;-5.16;98.71;98478.22;5096423;28;20063;-53
2024/01/17 08:50:52;;;;;;;92.68;34.85;;;;;;;-5.16;100.00;98488.91;5096139;28;20048;-54
2024/01/17 08:53:19;;;;;;;100.65;38.55;;;;;;;-5.84;100.00;98483.41;5096526;28;20052;-53
2024/01/17 08:55:45;;;;;;;101.75;36.38;;;;;;;-5.92;100.00;98482.91;5096058;28;20093;-53
2024/01/17 08:58:12;;;;;;;97.40;35.85;;;;;;;-6.18;100.00;98479.56;5096391;28;20052;-52
2024/01/17 09:00:38;;;;;;;92.43;36.00;;;;;;;-6.27;100.00;98477.72;5096165;28;20337;-55
2024/01/17 09:03:05;;;;;;;92.07;36.92;;;;;;;-6.29;100.00;98458.56;5096277;28;20357;-50
2024/01/17 09:05:31;;;;;;;93.03;33.70;;;;;;;-6.33;100.00;98455.63;5096022;28;20428;-52
2024/01/17 09:07:58;;;;;;;100.65;35.13;;;;;;;-6.49;100.00;98462.06;5096404;28;20055;-52
2024/01/17 09:10:24;;;;;;;99.00;33.58;;;;;;;-6.71;100.00;98457.84;5095909;28;20051;-55
2024/01/17 09:12:51;;;;;;;91.00;33.83;;;;;;;-6.80;100.00;98455.97;5095899;28;20424;-55
2024/01/17 09:15:17;;;;;;;93.45;32.83;;;;;;;-6.85;100.00;98451.47;5095848;28;20064;-51
2024/01/17 09:17:44;;;;;;;82.28;32.20;;;;;;;-6.76;100.00;98447.19;5099502;28;20405;-53
2024/01/17 09:20:10;;;;;;;72.90;28.55;;;;;;;-6.59;100.00;98451.44;5099768;28;20308;-54
2024/01/17 09:22:37;;;;;;;80.90;28.88;;;;;;;-6.71;100.00;98452.50;5099581;28;20382;-52
2024/01/17 09:25:04;;;;;;;81.90;28.15;;;;;;;-6.77;100.00;98461.56;5099631;28;20047;-53
2024/01/17 09:27:30;;;;;;;90.65;32.25;;;;;;;-6.58;100.00;98458.34;5099372;28;20044;-53
2024/01/17 09:29:56;;;;;;;71.55;28.30;;;;;;;-6.59;100.00;98460.22;5099612;28;20075;-55
2024/01/17 09:32:23;;;;;;;52.05;22.30;;;;;;;-6.67;100.00;98460.75;5099213;28;20117;-52
2024/01/17 09:34:49;;;;;;;57.65;21.92;;;;;;;-6.65;100.00;98464.75;5099516;28;20060;-55
2024/01/17 09:37:16;;;;;;;71.53;21.02;;;;;;;-6.54;100.00;98472.75;5099180;28;20079;-53
2024/01/17 09:39:43;;;;;;;51.75;19.05;;;;;;;-6.65;100.00;98475.44;5099222;28;20052;-52
2024/01/17 09:42:10;;;;;;;42.78;15.27;;;;;;;-6.59;100.00;98472.75;5099121;28;20112;-51
2024/01/17 09:44:36;;;;;;;33.80;11.43;;;;;;;-6.64;100.00;98471.69;5098933;28;20150;-55
2024/01/17 09:47:05;;;;;;;26.90;10.25;;;;;;;-6.45;100.00;98473.78;5098886;28;20478;-54
2024/01/17 09:49:32;;;;;;;33.92;12.30;;;;;;;-6.36;100.00;98476.69;5098694;28;20051;-54
2024/01/17 09:52:02;;;;;;;28.88;8.88;;;;;;;-6.40;100.00;98477.25;5099083;28;20048;-53
2024/01/17 09:54:31;;;;;;;22.45;8.07;;;;;;;-6.55;98.72;98474.63;5098807;28;20105;-55
2024/01/17 09:56:57;;;;;;;31.48;10.02;;;;;;;-6.09;96.12;98460.34;5099341;28;20302;-54
2024/01/17 09:59:28;;;;;;;22.50;8.75;;;;;;;-5.95;95.94;98462.13;5098631;28;20051;-51
2024/01/17 10:01:54;;;;;;;33.47;11.25;;;;;;;-6.36;97.15;98460.69;5099195;28;20052;-49
2024/01/17 10:04:23;;;;;;;45.80;16.67;;;;;;;-6.12;98.44;98466.22;5098605;28;20059;-54
2024/01/17 10:06:50;;;;;;;41.33;12.40;;;;;;;-6.19;100.00;98459.31;5098616;28;20062;-54
2024/01/17 10:09:16;;;;;;;27.83;11.68;;;;;;;-6.27;99.41;98459.84;5098737;28;20066;-54
2024/01/17 10:11:42;;;;;;;15.63;6.65;;;;;;;-6.42;95.59;98462.59;5098619;28;20055;-51
2024/01/17 10:14:08;;;;;;;17.00;6.85;;;;;;;-6.24;92.27;98456.66;5098711;28;20048;-53
2024/01/17 10:16:35;;;;;;;10.82;5.60;;;;;;;-5.69;93.43;98457.44;5098613;28;20051;-51
2024/01/17 10:19:03;;;;;;;10.68;5.75;;;;;;;-6.34;87.59;98464.69;5098778;28;20052;-51
2024/01/17 10:21:32;;;;;;;19.52;7.63;;;;;;;-6.29;91.04;98472.69;5098369;28;20052;-52
2024/01/17 10:23:59;;;;;;;20.48;9.00;;;;;;;-5.88;88.98;98469.03;5098696;28;20109;-50
2024/01/17 10:26:25;;;;;;;21.05;7.15;;;;;;;-5.63;89.36;98458.22;5098391;28;20052;-55
2024/01/17 10:28:52;;;;;;;28.63;10.07;;;;;;;-5.71;90.82;98466.78;5097496;28;20052;-52
2024/01/17 10:31:20;;;;;;;23.98;11.02;;;;;;;-6.05;94.48;98459.53;5098130;28;20051;-54
2024/01/17 10:33:46;;;;;;;25.30;10.35;;;;;;;-6.42;96.55;98465.25;5098511;28;20111;-55
2024/01/17 10:36:13;;;;;;;18.27;8.57;;;;;;;-6.51;96.64;98461.53;5098217;28;20094;-55
2024/01/17 10:38:39;;;;;;;25.73;9.98;;;;;;;-6.51;100.00;98456.19;5098095;28;20091;-52
2024/01/17 10:41:07;;;;;;;29.13;9.60;;;;;;;-6.36;100.00;98453.50;5098161;28;20412;-50
2024/01/17 10:43:40;;;;;;;21.33;9.50;;;;;;;-6.05;100.00;98453.38;5098234;28;20422;-54
2024/01/17 10:46:09;;;;;;;20.60;8.07;;;;;;;-6.12;100.00;98450.22;5098283;28;20079;-54
2024/01/17 10:48:35;;;;;;;11.27;6.63;;;;;;;-6.43;100.00;98450.31;5097882;28;20052;-55
2024/01/17 10:51:02;;;;;;;20.13;8.93;;;;;;;-6.53;100.00;98451.16;5098093;28;20098;-52
2024/01/17 10:53:30;;;;;;;17.70;7.22;;;;;;;-6.69;100.00;98445.03;5097817;28;20099;-49
2024/01/17 10:56:03;;;;;;;15.43;7.57;;;;;;;-6.41;100.00;98442.84;5098274;28;20411;-52
2024/01/17 10:58:32;;;;;;;14.65;7.65;;;;;;;-6.46;100.00;98445.53;5097810;28;20545;-54
2024/01/17 11:01:03;;;;;;;22.75;8.82;;;;;;;-6.46;100.00;98435.66;5097660;28;20048;-49
2024/01/17 11:03:33;;;;;;;14.25;7.38;;;;;;;-6.25;100.00;98436.38;5097737;28;20059;-53
2024/01/17 11:06:00;;;;;;;35.70;13.30;;;;;;;-6.22;100.00;98430.50;5097719;28;20059;-55
2024/01/17 11:08:26;;;;;;;10.50;5.88;;;;;;;-6.53;100.00;98439.66;5097858;28;20067;-55
2024/01/17 11:10:55;;;;;;;13.55;7.43;;;;;;;-6.11;100.00;98433.94;5097707;28;20043;-51